createdAt,value
2022-08-03T00:00:47.223Z,100
2022-08-03T00:01:48.141Z,100
2022-08-03T00:02:48.899Z,100
2022-08-03T00:03:49.599Z,100
2022-08-03T00:04:50.230Z,100
2022-08-03T00:06:03.709Z,100
2022-08-03T00:07:05.705Z,100
2022-08-03T00:08:06.429Z,100
2022-08-03T00:09:08.323Z,100
2022-08-03T00:10:08.963Z,100
2022-08-03T00:11:09.632Z,100
2022-08-03T00:12:10.348Z,100
2022-08-03T00:13:11.085Z,100
2022-08-03T00:14:11.806Z,100
2022-08-03T00:15:15.384Z,100
2022-08-03T00:16:17.640Z,100
2022-08-03T00:17:18.263Z,100
2022-08-03T00:18:18.890Z,100
2022-08-03T00:19:19.512Z,100
2022-08-03T00:20:20.128Z,100
2022-08-03T00:21:20.859Z,100
2022-08-03T00:22:21.474Z,100
2022-08-03T00:23:24.802Z,100
2022-08-03T00:24:25.432Z,100
2022-08-03T00:25:26.102Z,100
2022-08-03T00:26:26.730Z,100
2022-08-03T00:27:27.354Z,100
2022-08-03T00:28:33.721Z,100
2022-08-03T00:29:34.342Z,100
2022-08-03T00:31:00.895Z,100
2022-08-03T00:32:01.561Z,100
2022-08-03T00:33:03.336Z,100
2022-08-03T00:34:05.145Z,100
2022-08-03T00:35:09.307Z,100
2022-08-03T00:36:12.091Z,100
2022-08-03T00:37:12.712Z,100
2022-08-03T00:38:13.333Z,100
2022-08-03T00:39:13.964Z,100
2022-08-03T00:40:14.594Z,100
2022-08-03T00:41:15.757Z,100
2022-08-03T00:42:16.888Z,100
2022-08-03T00:43:17.677Z,100
2022-08-03T00:44:19.079Z,100
2022-08-03T00:45:19.779Z,100
2022-08-03T00:46:21.968Z,100
2022-08-03T00:47:22.934Z,100
2022-08-03T00:48:33.341Z,100
2022-08-03T00:49:34.618Z,100
2022-08-03T00:50:35.410Z,100
2022-08-03T00:51:36.115Z,100
2022-08-03T00:52:36.740Z,100
2022-08-03T00:53:37.357Z,100
2022-08-03T00:54:38.073Z,100
2022-08-03T00:55:38.763Z,100
2022-08-03T00:56:39.416Z,100
2022-08-03T00:58:00.054Z,100
2022-08-03T00:59:00.694Z,100
2022-08-03T01:00:01.320Z,100
2022-08-03T01:01:02.001Z,100
2022-08-03T01:02:02.713Z,100
2022-08-03T01:03:03.362Z,100
2022-08-03T01:04:04.017Z,100
2022-08-03T01:05:04.696Z,100
2022-08-03T01:06:05.334Z,100
2022-08-03T01:07:05.957Z,100
2022-08-03T01:08:11.625Z,100
2022-08-03T01:09:12.251Z,100
2022-08-03T01:10:12.869Z,100
2022-08-03T01:11:13.510Z,100
2022-08-03T01:12:14.395Z,100
2022-08-03T01:14:03.573Z,100
2022-08-03T01:15:19.125Z,100
2022-08-03T01:16:19.785Z,100
2022-08-03T01:17:21.527Z,100
2022-08-03T01:18:22.161Z,100
2022-08-03T01:19:22.900Z,100
2022-08-03T01:20:23.617Z,100
2022-08-03T01:21:24.233Z,100
2022-08-03T01:22:24.853Z,100
2022-08-03T01:23:29.053Z,100
2022-08-03T01:24:29.823Z,100
2022-08-03T01:25:30.434Z,100
2022-08-03T01:26:31.126Z,100
2022-08-03T01:27:31.745Z,100
2022-08-03T01:28:32.364Z,100
2022-08-03T01:29:32.986Z,100
2022-08-03T01:30:33.607Z,100
2022-08-03T01:31:34.246Z,100
2022-08-03T01:34:01.037Z,100
2022-08-03T01:35:01.661Z,100
2022-08-03T01:36:02.349Z,100
2022-08-03T01:37:02.977Z,100
2022-08-03T01:38:03.586Z,100
2022-08-03T01:39:04.782Z,100
2022-08-03T01:40:05.402Z,100
2022-08-03T01:41:06.012Z,100
2022-08-03T01:42:06.626Z,100
2022-08-03T01:43:07.230Z,100
2022-08-03T01:44:28.013Z,100
2022-08-03T01:45:33.927Z,100
2022-08-03T01:46:34.915Z,100
2022-08-03T01:47:35.545Z,100
2022-08-03T01:48:36.193Z,100
2022-08-03T01:49:36.836Z,100
2022-08-03T01:50:37.502Z,100
2022-08-03T01:51:58.470Z,100
2022-08-03T01:53:05.323Z,100
2022-08-03T01:54:06.015Z,100
2022-08-03T01:55:06.635Z,100
2022-08-03T01:56:07.275Z,100
2022-08-03T01:57:07.884Z,100
2022-08-03T01:58:08.500Z,100
2022-08-03T01:59:09.155Z,100
2022-08-03T02:00:09.744Z,100
2022-08-03T02:01:10.697Z,100
2022-08-03T02:02:28.703Z,100
2022-08-03T02:03:34.515Z,100
2022-08-03T02:04:35.167Z,100
2022-08-03T02:05:35.897Z,100
2022-08-03T02:07:01.711Z,100
2022-08-03T02:08:03.255Z,100
2022-08-03T02:09:03.965Z,100
2022-08-03T02:10:04.625Z,100
2022-08-03T02:11:05.239Z,100
2022-08-03T02:12:05.855Z,100
2022-08-03T02:13:06.478Z,100
2022-08-03T02:14:07.153Z,100
2022-08-03T02:15:07.795Z,100
2022-08-03T02:16:08.531Z,100
2022-08-03T02:17:09.149Z,100
2022-08-03T02:18:09.864Z,100
2022-08-03T02:19:10.485Z,100
2022-08-03T02:20:11.230Z,100
2022-08-03T02:21:11.844Z,100
2022-08-03T02:22:56.804Z,100
2022-08-03T02:23:57.523Z,100
2022-08-03T02:24:58.244Z,100
2022-08-03T02:25:59.850Z,100
2022-08-03T02:27:00.923Z,100
2022-08-03T02:28:01.579Z,100
2022-08-03T02:29:02.267Z,100
2022-08-03T02:30:03.581Z,100
2022-08-03T02:31:04.225Z,100
2022-08-03T02:32:04.861Z,100
2022-08-03T02:33:05.472Z,100
2022-08-03T02:34:06.089Z,100
2022-08-03T02:35:06.691Z,100
2022-08-03T02:36:07.326Z,100
2022-08-03T02:37:07.935Z,100
2022-08-03T02:38:08.575Z,100
2022-08-03T02:39:09.182Z,100
2022-08-03T02:40:09.801Z,100
2022-08-03T02:41:10.444Z,100
2022-08-03T02:42:12.246Z,100
2022-08-03T02:43:13.534Z,100
2022-08-03T02:44:14.154Z,100
2022-08-03T02:45:14.897Z,100
2022-08-03T02:46:15.513Z,100
2022-08-03T02:47:16.117Z,100
2022-08-03T02:48:16.833Z,100
2022-08-03T02:49:42.153Z,100
2022-08-03T02:50:51.776Z,100
2022-08-03T02:51:52.380Z,100
2022-08-03T02:52:53.002Z,100
2022-08-03T02:53:53.620Z,100
2022-08-03T02:54:54.237Z,100
2022-08-03T02:55:54.967Z,100
2022-08-03T02:56:55.602Z,100
2022-08-03T02:57:56.230Z,100
2022-08-03T02:58:56.853Z,100
2022-08-03T02:59:57.577Z,100
2022-08-03T03:00:58.258Z,100
2022-08-03T03:01:58.924Z,100
2022-08-03T03:03:00.408Z,100
2022-08-03T03:04:01.361Z,100
2022-08-03T03:05:55.164Z,100
2022-08-03T03:06:57.859Z,100
2022-08-03T03:07:58.551Z,100
2022-08-03T03:08:59.861Z,100
2022-08-03T03:10:01.242Z,100
2022-08-03T03:11:01.910Z,100
2022-08-03T03:12:02.551Z,100
2022-08-03T03:13:03.368Z,100
2022-08-03T03:14:04.003Z,100
2022-08-03T03:15:04.665Z,100
2022-08-03T03:16:05.281Z,100
2022-08-03T03:17:05.903Z,100
2022-08-03T03:18:06.603Z,100
2022-08-03T03:19:07.359Z,100
2022-08-03T03:20:07.968Z,100
2022-08-03T03:21:08.600Z,100
2022-08-03T03:22:09.315Z,100
2022-08-03T03:23:10.009Z,100
2022-08-03T03:24:10.751Z,100
2022-08-03T03:25:11.382Z,100
2022-08-03T03:26:11.999Z,100
2022-08-03T03:27:16.560Z,100
2022-08-03T03:28:17.559Z,100
2022-08-03T03:29:18.255Z,100
2022-08-03T03:30:18.878Z,100
2022-08-03T03:31:19.578Z,100
2022-08-03T03:32:20.205Z,100
2022-08-03T03:33:20.831Z,100
2022-08-03T03:34:21.454Z,100
2022-08-03T03:35:23.702Z,100
2022-08-03T03:36:24.341Z,100
2022-08-03T03:37:24.953Z,100
2022-08-03T03:38:25.582Z,100
2022-08-03T03:39:26.301Z,100
2022-08-03T03:40:26.932Z,100
2022-08-03T03:41:27.641Z,100
2022-08-03T03:42:34.549Z,100
2022-08-03T03:43:35.173Z,100
2022-08-03T03:44:35.799Z,100
2022-08-03T03:45:36.422Z,100
2022-08-03T03:46:37.048Z,100
2022-08-03T03:47:37.666Z,100
2022-08-03T03:48:38.275Z,100
2022-08-03T03:49:41.689Z,100
2022-08-03T03:50:42.409Z,100
2022-08-03T03:51:43.153Z,100
2022-08-03T03:52:43.875Z,100
2022-08-03T03:53:44.579Z,100
2022-08-03T03:54:45.749Z,100
2022-08-03T03:55:57.928Z,100
2022-08-03T03:57:02.467Z,100
2022-08-03T03:58:03.095Z,100
2022-08-03T03:59:03.718Z,100
2022-08-03T04:00:04.378Z,100
2022-08-03T04:01:05.085Z,100
2022-08-03T04:02:05.749Z,100
2022-08-03T04:03:06.493Z,100
2022-08-03T04:04:08.923Z,100
2022-08-03T04:05:09.540Z,100
2022-08-03T04:06:10.185Z,100
2022-08-03T04:07:10.855Z,100
2022-08-03T04:08:11.480Z,100
2022-08-03T04:09:12.112Z,100
2022-08-03T04:10:14.414Z,100
2022-08-03T04:11:15.321Z,100
2022-08-03T04:12:16.309Z,100
2022-08-03T04:13:17.062Z,100
2022-08-03T04:14:17.693Z,100
2022-08-03T04:15:18.914Z,100
2022-08-03T04:16:19.531Z,100
2022-08-03T04:17:20.156Z,100
2022-08-03T04:18:21.381Z,100
2022-08-03T04:19:23.484Z,100
2022-08-03T04:20:24.248Z,100
2022-08-03T04:21:24.931Z,100
2022-08-03T04:22:25.543Z,100
2022-08-03T04:23:26.152Z,100
2022-08-03T04:24:26.787Z,100
2022-08-03T04:25:27.804Z,100
2022-08-03T04:26:28.420Z,100
2022-08-03T04:27:29.044Z,100
2022-08-03T04:28:31.847Z,100
2022-08-03T04:29:32.871Z,100
2022-08-03T04:30:34.132Z,100
2022-08-03T04:31:34.849Z,100
2022-08-03T04:32:35.569Z,100
2022-08-03T04:33:36.282Z,100
2022-08-03T04:34:37.218Z,100
2022-08-03T04:35:54.749Z,100
2022-08-03T04:37:03.854Z,100
2022-08-03T04:38:04.499Z,100
2022-08-03T04:39:05.129Z,100
2022-08-03T04:40:05.751Z,100
2022-08-03T04:41:06.439Z,100
2022-08-03T04:42:08.918Z,100
2022-08-03T04:43:09.835Z,100
2022-08-03T04:44:10.456Z,100
2022-08-03T04:45:11.074Z,100
2022-08-03T04:46:11.694Z,100
2022-08-03T04:47:12.314Z,100
2022-08-03T04:48:12.923Z,100
2022-08-03T04:49:13.646Z,100
2022-08-03T04:50:18.211Z,100
2022-08-03T04:51:22.002Z,100
2022-08-03T04:52:22.701Z,100
2022-08-03T04:53:23.341Z,100
2022-08-03T04:54:24.038Z,100
2022-08-03T04:55:24.680Z,100
2022-08-03T04:56:25.398Z,100
2022-08-03T04:57:26.016Z,100
2022-08-03T04:58:26.720Z,100
2022-08-03T04:59:27.342Z,100
2022-08-03T05:00:28.062Z,100
2022-08-03T05:01:28.833Z,100
2022-08-03T05:02:29.561Z,100
2022-08-03T05:03:30.191Z,100
2022-08-03T05:04:30.800Z,100
2022-08-03T05:05:48.992Z,100
2022-08-03T05:06:54.954Z,100
2022-08-03T05:07:56.020Z,100
2022-08-03T05:08:56.645Z,100
2022-08-03T05:10:01.751Z,100
2022-08-03T05:11:03.981Z,100
2022-08-03T05:12:04.710Z,100
2022-08-03T05:13:05.332Z,100
2022-08-03T05:14:05.968Z,100
2022-08-03T05:15:06.672Z,100
2022-08-03T05:16:07.290Z,100
2022-08-03T05:17:07.918Z,100
2022-08-03T05:18:13.695Z,100
2022-08-03T05:19:14.979Z,100
2022-08-03T05:20:18.861Z,100
2022-08-03T05:21:19.935Z,100
2022-08-03T05:22:20.585Z,100
2022-08-03T05:23:21.210Z,100
2022-08-03T05:24:21.827Z,100
2022-08-03T05:25:27.321Z,100
2022-08-03T05:26:28.111Z,100
2022-08-03T05:27:28.751Z,100
2022-08-03T05:28:29.381Z,100
2022-08-03T05:29:29.998Z,100
2022-08-03T05:30:33.888Z,100
2022-08-03T05:31:35.132Z,100
2022-08-03T05:32:35.843Z,100
2022-08-03T05:33:36.469Z,100
2022-08-03T05:34:37.085Z,100
2022-08-03T05:36:00.784Z,100
2022-08-03T05:37:04.514Z,100
2022-08-03T05:38:05.172Z,100
2022-08-03T05:39:06.512Z,100
2022-08-03T05:40:07.243Z,100
2022-08-03T05:41:22.905Z,100
2022-08-03T05:42:24.620Z,100
2022-08-03T05:43:25.244Z,100
2022-08-03T05:44:25.851Z,100
2022-08-03T05:45:28.402Z,100
2022-08-03T05:46:29.460Z,100
2022-08-03T05:47:30.072Z,100
2022-08-03T05:48:30.691Z,100
2022-08-03T05:49:31.332Z,100
2022-08-03T05:50:33.358Z,100
2022-08-03T05:51:33.962Z,100
2022-08-03T05:52:34.570Z,100
2022-08-03T05:53:35.450Z,100
2022-08-03T05:54:57.387Z,100
2022-08-03T05:56:02.364Z,100
2022-08-03T05:57:15.472Z,100
2022-08-03T05:58:16.077Z,100
2022-08-03T05:59:37.740Z,100
2022-08-03T06:00:39.180Z,100
2022-08-03T06:01:39.828Z,100
2022-08-03T06:02:40.479Z,100
2022-08-03T06:03:41.070Z,100
2022-08-03T06:04:41.691Z,100
2022-08-03T06:05:43.413Z,100
2022-08-03T06:07:00.531Z,100
2022-08-03T06:08:01.175Z,100
2022-08-03T06:09:01.829Z,100
2022-08-03T06:10:34.943Z,100
2022-08-03T06:11:38.832Z,100
2022-08-03T06:12:39.508Z,100
2022-08-03T06:13:40.129Z,100
2022-08-03T06:14:40.748Z,100
2022-08-03T06:15:41.379Z,100
2022-08-03T06:16:42.013Z,100
2022-08-03T06:17:42.629Z,100
2022-08-03T06:18:43.329Z,100
2022-08-03T06:19:44.632Z,100
2022-08-03T06:20:45.258Z,100
2022-08-03T06:21:47.933Z,100
2022-08-03T06:22:50.679Z,100
2022-08-03T06:23:54.619Z,100
2022-08-03T06:24:56.078Z,100
2022-08-03T06:25:58.000Z,100
2022-08-03T06:26:58.628Z,100
2022-08-03T06:27:59.375Z,100
2022-08-03T06:29:00.097Z,100
2022-08-03T06:30:04.730Z,100
2022-08-03T06:31:06.510Z,100
2022-08-03T06:32:07.400Z,100
2022-08-03T06:33:08.293Z,100
2022-08-03T06:34:33.510Z,100
2022-08-03T06:35:35.997Z,100
2022-08-03T06:36:37.572Z,100
2022-08-03T06:37:38.190Z,100
2022-08-03T06:38:38.814Z,100
2022-08-03T06:39:39.438Z,100
2022-08-03T06:40:40.064Z,100
2022-08-03T06:41:44.682Z,100
2022-08-03T06:42:45.697Z,100
2022-08-03T06:44:03.350Z,100
2022-08-03T06:45:05.072Z,100
2022-08-03T06:46:05.776Z,100
2022-08-03T06:47:06.471Z,100
2022-08-03T06:48:07.094Z,100
2022-08-03T06:49:07.821Z,100
2022-08-03T06:50:14.250Z,100
2022-08-03T06:51:18.165Z,100
2022-08-03T06:52:38.109Z,100
2022-08-03T06:53:39.330Z,100
2022-08-03T06:54:39.938Z,100
2022-08-03T06:55:42.274Z,100
2022-08-03T06:56:43.184Z,100
2022-08-03T06:57:43.917Z,100
2022-08-03T06:58:44.634Z,100
2022-08-03T07:00:09.729Z,100
2022-08-03T07:01:12.602Z,100
2022-08-03T07:02:16.068Z,100
2022-08-03T07:03:20.107Z,100
2022-08-03T07:04:20.721Z,100
2022-08-03T07:05:21.342Z,100
2022-08-03T07:06:21.976Z,100
2022-08-03T07:07:22.673Z,100
2022-08-03T07:08:33.600Z,100
2022-08-03T07:09:35.221Z,100
2022-08-03T07:10:35.856Z,100
2022-08-03T07:11:37.038Z,100
2022-08-03T07:12:37.767Z,100
2022-08-03T07:13:56.408Z,100
2022-08-03T07:15:00.734Z,100
2022-08-03T07:16:02.653Z,100
2022-08-03T07:17:04.611Z,100
2022-08-03T07:18:12.552Z,100
2022-08-03T07:19:13.178Z,100
2022-08-03T07:20:13.788Z,100
2022-08-03T07:21:14.412Z,100
2022-08-03T07:22:15.201Z,100
2022-08-03T07:23:18.963Z,100
2022-08-03T07:24:20.079Z,100
2022-08-03T07:25:20.726Z,100
2022-08-03T07:26:21.366Z,100
2022-08-03T07:27:21.988Z,100
2022-08-03T07:28:22.610Z,100
2022-08-03T07:29:23.262Z,100
2022-08-03T07:30:23.965Z,100
2022-08-03T07:31:25.250Z,100
2022-08-03T07:32:25.880Z,100
2022-08-03T07:33:26.540Z,100
2022-08-03T07:34:27.267Z,100
2022-08-03T07:35:27.898Z,100
2022-08-03T07:36:28.538Z,100
2022-08-03T07:37:29.158Z,100
2022-08-03T07:38:29.804Z,100
2022-08-03T07:39:30.430Z,100
2022-08-03T07:40:31.681Z,100
2022-08-03T07:41:32.817Z,100
2022-08-03T07:42:33.446Z,100
2022-08-03T07:43:34.076Z,100
2022-08-03T07:44:34.705Z,100
2022-08-03T07:45:35.435Z,100
2022-08-03T07:46:36.066Z,100
2022-08-03T07:47:36.776Z,100
2022-08-03T07:48:37.392Z,100
2022-08-03T07:49:38.315Z,100
2022-08-03T07:50:38.982Z,100
2022-08-03T07:51:39.675Z,100
2022-08-03T07:52:40.298Z,100
2022-08-03T07:53:47.215Z,100
2022-08-03T07:54:48.667Z,100
2022-08-03T07:55:49.283Z,100
2022-08-03T07:56:49.944Z,100
2022-08-03T07:57:50.566Z,100
2022-08-03T07:58:51.187Z,100
2022-08-03T08:00:01.408Z,100
2022-08-03T08:01:02.841Z,100
2022-08-03T08:02:03.623Z,100
2022-08-03T08:03:04.273Z,100
2022-08-03T08:04:04.921Z,100
2022-08-03T08:05:06.007Z,100
2022-08-03T08:06:07.056Z,100
2022-08-03T08:07:09.807Z,100
2022-08-03T08:08:10.736Z,100
2022-08-03T08:09:11.365Z,100
2022-08-03T08:10:11.984Z,100
2022-08-03T08:11:13.604Z,100
2022-08-03T08:12:16.113Z,100
2022-08-03T08:13:17.046Z,100
2022-08-03T08:14:17.675Z,100
2022-08-03T08:15:18.295Z,100
2022-08-03T08:16:18.925Z,100
2022-08-03T08:17:19.533Z,100
2022-08-03T08:18:20.149Z,100
2022-08-03T08:19:20.761Z,100
2022-08-03T08:20:30.718Z,100
2022-08-03T08:21:53.901Z,100
2022-08-03T08:23:03.622Z,100
2022-08-03T08:24:20.476Z,100
2022-08-03T08:25:21.270Z,100
2022-08-03T08:26:21.993Z,100
2022-08-03T08:27:22.614Z,100
2022-08-03T08:28:30.081Z,100
2022-08-03T08:29:32.806Z,100
2022-08-03T08:30:33.448Z,100
2022-08-03T08:31:36.387Z,100
2022-08-03T08:32:37.019Z,100
2022-08-03T08:34:02.608Z,100
2022-08-03T08:35:03.661Z,100
2022-08-03T08:36:04.277Z,100
2022-08-03T08:37:04.899Z,100
2022-08-03T08:38:05.920Z,100
2022-08-03T08:39:06.624Z,100
2022-08-03T08:40:07.249Z,100
2022-08-03T08:41:07.895Z,100
2022-08-03T08:42:08.550Z,100
2022-08-03T08:43:09.199Z,100
2022-08-03T08:44:09.813Z,100
2022-08-03T08:45:10.465Z,100
2022-08-03T08:46:11.165Z,100
2022-08-03T08:47:11.900Z,100
2022-08-03T08:48:12.608Z,100
2022-08-03T08:49:13.380Z,100
2022-08-03T08:50:27.379Z,100
2022-08-03T08:51:54.569Z,100
2022-08-03T08:53:01.690Z,100
2022-08-03T08:54:02.324Z,100
2022-08-03T08:55:02.976Z,100
2022-08-03T08:56:03.623Z,100
2022-08-03T08:57:12.474Z,100
2022-08-03T08:58:27.341Z,100
2022-08-03T08:59:27.971Z,100
2022-08-03T09:00:49.441Z,100
2022-08-03T09:01:50.187Z,100
2022-08-03T09:02:50.934Z,100
2022-08-03T09:03:51.641Z,100
2022-08-03T09:04:52.354Z,100
2022-08-03T09:05:56.031Z,100
2022-08-03T09:07:18.655Z,100
2022-08-03T09:08:20.635Z,100
2022-08-03T09:10:10.543Z,100
2022-08-03T09:11:13.142Z,100
2022-08-03T09:12:37.175Z,100
2022-08-03T09:13:41.548Z,100
2022-08-03T09:15:00.749Z,100
2022-08-03T09:16:08.430Z,100
2022-08-03T09:17:17.108Z,100
2022-08-03T09:18:18.382Z,100
2022-08-03T09:19:19.009Z,100
2022-08-03T09:20:19.632Z,100
2022-08-03T09:21:30.501Z,100
2022-08-03T09:22:32.092Z,100
2022-08-03T09:23:59.755Z,100
2022-08-03T09:25:22.704Z,100
2022-08-03T09:26:24.336Z,100
2022-08-03T09:27:26.169Z,100
2022-08-03T09:28:53.889Z,100
2022-08-03T09:30:02.581Z,100
2022-08-03T09:31:03.381Z,100
2022-08-03T09:32:04.008Z,100
2022-08-03T09:33:04.743Z,100
2022-08-03T09:34:05.372Z,100
2022-08-03T09:35:06.006Z,100
2022-08-03T09:36:10.104Z,100
2022-08-03T09:37:10.720Z,100
2022-08-03T09:38:14.118Z,100
2022-08-03T09:39:15.029Z,100
2022-08-03T09:40:15.714Z,100
2022-08-03T09:41:16.549Z,100
2022-08-03T09:42:17.307Z,100
2022-08-03T09:43:19.120Z,100
2022-08-03T09:44:25.857Z,100
2022-08-03T09:45:27.000Z,100
2022-08-03T09:46:27.666Z,100
2022-08-03T09:47:28.488Z,100
2022-08-03T09:48:29.140Z,100
2022-08-03T09:49:29.813Z,100
2022-08-03T09:50:30.463Z,100
2022-08-03T09:51:33.050Z,100
2022-08-03T09:53:34.253Z,100
2022-08-03T09:54:34.875Z,100
2022-08-03T09:56:33.720Z,100
2022-08-03T09:57:36.490Z,100
2022-08-03T09:58:37.113Z,100
2022-08-03T09:59:39.158Z,100
2022-08-03T10:00:41.992Z,100
2022-08-03T10:01:42.775Z,100
2022-08-03T10:02:43.701Z,100
2022-08-03T10:04:03.163Z,100
2022-08-03T10:05:05.212Z,100
2022-08-03T10:06:05.941Z,100
2022-08-03T10:07:06.574Z,100
2022-08-03T10:08:07.198Z,100
2022-08-03T10:09:07.850Z,100
2022-08-03T10:10:29.347Z,100
2022-08-03T10:11:34.343Z,100
2022-08-03T10:12:42.261Z,100
2022-08-03T10:13:42.883Z,100
2022-08-03T10:14:43.517Z,100
2022-08-03T10:16:21.709Z,100
2022-08-03T10:17:25.776Z,100
2022-08-03T10:18:26.391Z,100
2022-08-03T10:19:27.151Z,100
2022-08-03T10:20:27.773Z,100
2022-08-03T10:21:28.398Z,100
2022-08-03T10:22:29.031Z,100
2022-08-03T10:23:33.545Z,100
2022-08-03T10:24:34.874Z,100
2022-08-03T10:25:35.530Z,100
2022-08-03T10:26:36.148Z,100
2022-08-03T10:27:36.772Z,100
2022-08-03T10:28:41.455Z,100
2022-08-03T10:29:45.162Z,100
2022-08-03T10:30:45.874Z,100
2022-08-03T10:31:57.328Z,100
2022-08-03T10:32:59.082Z,100
2022-08-03T10:33:59.823Z,100
2022-08-03T10:35:04.162Z,100
2022-08-03T10:36:20.457Z,100
2022-08-03T10:37:22.000Z,100
2022-08-03T10:38:22.655Z,100
2022-08-03T10:39:23.279Z,100
2022-08-03T10:40:47.659Z,100
2022-08-03T10:41:49.976Z,100
2022-08-03T10:42:50.640Z,100
2022-08-03T10:43:51.270Z,100
2022-08-03T10:44:51.989Z,100
2022-08-03T10:45:52.729Z,100
2022-08-03T10:46:53.440Z,100
2022-08-03T10:47:54.983Z,100
2022-08-03T10:48:55.657Z,100
2022-08-03T10:49:56.358Z,100
2022-08-03T10:50:57.048Z,100
2022-08-03T10:51:57.791Z,100
2022-08-03T10:52:58.419Z,100
2022-08-03T10:54:02.710Z,100
2022-08-03T10:55:07.613Z,100
2022-08-03T10:56:10.853Z,100
2022-08-03T10:57:14.270Z,100
2022-08-03T10:58:15.370Z,100
2022-08-03T10:59:31.329Z,100
2022-08-03T11:00:32.033Z,100
2022-08-03T11:01:55.049Z,100
2022-08-03T11:03:00.290Z,100
2022-08-03T11:04:00.949Z,100
2022-08-03T11:05:01.590Z,100
2022-08-03T11:06:02.275Z,100
2022-08-03T11:07:02.904Z,100
2022-08-03T11:08:03.535Z,100
2022-08-03T11:09:04.147Z,100
2022-08-03T11:10:10.222Z,100
2022-08-03T11:11:11.217Z,100
2022-08-03T11:12:11.840Z,100
2022-08-03T11:13:14.830Z,100
2022-08-03T11:14:17.669Z,100
2022-08-03T11:15:18.288Z,100
2022-08-03T11:16:21.876Z,100
2022-08-03T11:17:22.969Z,100
2022-08-03T11:18:27.121Z,100
2022-08-03T11:19:27.938Z,100
2022-08-03T11:20:28.890Z,100
2022-08-03T11:21:30.490Z,100
2022-08-03T11:22:31.221Z,100
2022-08-03T11:24:03.384Z,100
2022-08-03T11:25:06.862Z,100
2022-08-03T11:26:07.478Z,100
2022-08-03T11:27:08.093Z,100
2022-08-03T11:28:08.749Z,100
2022-08-03T11:29:09.468Z,100
2022-08-03T11:30:10.246Z,100
2022-08-03T11:31:27.087Z,100
2022-08-03T11:32:40.146Z,100
2022-08-03T11:33:47.277Z,100
2022-08-03T11:34:47.919Z,100
2022-08-03T11:35:48.546Z,100
2022-08-03T11:36:49.166Z,100
2022-08-03T11:38:03.289Z,100
2022-08-03T11:39:05.824Z,100
2022-08-03T11:40:06.451Z,100
2022-08-03T11:41:07.086Z,100
2022-08-03T11:42:07.710Z,100
2022-08-03T11:43:08.336Z,100
2022-08-03T11:44:08.991Z,100
2022-08-03T11:45:09.609Z,100
2022-08-03T11:46:10.240Z,100
2022-08-03T11:47:10.855Z,100
2022-08-03T11:48:11.492Z,100
2022-08-03T11:49:12.278Z,100
2022-08-03T11:50:12.938Z,100
2022-08-03T11:51:13.566Z,100
2022-08-03T11:52:14.409Z,100
2022-08-03T11:53:15.044Z,100
2022-08-03T11:54:15.925Z,100
2022-08-03T11:55:16.553Z,100
2022-08-03T11:56:17.190Z,100
2022-08-03T11:57:18.032Z,100
2022-08-03T12:00:02.545Z,100
2022-08-03T12:01:03.264Z,100
2022-08-03T12:02:03.890Z,100
2022-08-03T12:03:04.646Z,100
2022-08-03T12:04:05.387Z,100
2022-08-03T12:05:06.031Z,100
2022-08-03T12:06:06.650Z,100
2022-08-03T12:07:07.275Z,100
2022-08-03T12:08:07.891Z,100
2022-08-03T12:09:08.535Z,100
2022-08-03T12:10:16.188Z,100
2022-08-03T12:11:16.832Z,100
2022-08-03T12:12:17.451Z,100
2022-08-03T12:14:08.386Z,100
2022-08-03T12:15:48.109Z,100
2022-08-03T12:16:48.827Z,100
2022-08-03T12:17:49.453Z,100
2022-08-03T12:18:50.080Z,100
2022-08-03T12:19:50.796Z,100
2022-08-03T12:20:51.523Z,100
2022-08-03T12:21:57.339Z,100
2022-08-03T12:22:58.391Z,100
2022-08-03T12:23:59.756Z,100
2022-08-03T12:25:00.452Z,100
2022-08-03T12:26:01.065Z,100
2022-08-03T12:27:03.337Z,100
2022-08-03T12:28:03.969Z,100
2022-08-03T12:29:32.576Z,100
2022-08-03T12:30:34.631Z,100
2022-08-03T12:31:35.364Z,100
2022-08-03T12:32:35.993Z,100
2022-08-03T12:33:36.615Z,100
2022-08-03T12:34:37.232Z,100
2022-08-03T12:35:37.858Z,100
2022-08-03T12:36:53.324Z,100
2022-08-03T12:37:53.955Z,100
2022-08-03T12:38:54.601Z,100
2022-08-03T12:40:02.365Z,100
2022-08-03T12:41:07.311Z,100
2022-08-03T12:42:08.845Z,100
2022-08-03T12:43:09.584Z,100
2022-08-03T12:44:10.308Z,100
2022-08-03T12:45:10.924Z,100
2022-08-03T12:46:11.586Z,100
2022-08-03T12:47:12.365Z,100
2022-08-03T12:48:13.403Z,100
2022-08-03T12:49:14.100Z,100
2022-08-03T12:50:14.738Z,100
2022-08-03T12:51:15.392Z,100
2022-08-03T12:52:16.010Z,100
2022-08-03T12:53:16.630Z,100
2022-08-03T12:54:17.241Z,100
2022-08-03T12:55:18.122Z,100
2022-08-03T12:56:18.747Z,100
2022-08-03T12:57:19.588Z,100
2022-08-03T12:58:20.412Z,100
2022-08-03T12:59:21.049Z,100
2022-08-03T13:00:29.326Z,100
2022-08-03T13:01:30.611Z,100
2022-08-03T13:02:32.931Z,100
2022-08-03T13:03:38.578Z,100
2022-08-03T13:04:42.422Z,100
2022-08-03T13:05:43.042Z,100
2022-08-03T13:06:43.653Z,100
2022-08-03T13:07:45.664Z,100
2022-08-03T13:08:46.616Z,100
2022-08-03T13:09:47.256Z,100
2022-08-03T13:10:47.884Z,100
2022-08-03T13:11:57.518Z,100
2022-08-03T13:13:03.046Z,100
2022-08-03T13:14:03.733Z,100
2022-08-03T13:15:04.561Z,100
2022-08-03T13:16:05.215Z,100
2022-08-03T13:17:05.835Z,100
2022-08-03T13:18:06.456Z,100
2022-08-03T13:19:07.067Z,100
2022-08-03T13:20:15.965Z,100
2022-08-03T13:21:16.585Z,100
2022-08-03T13:22:17.219Z,100
2022-08-03T13:23:22.158Z,100
2022-08-03T13:24:23.485Z,100
2022-08-03T13:25:24.137Z,100
2022-08-03T13:26:24.779Z,100
2022-08-03T13:28:03.421Z,100
2022-08-03T13:29:05.648Z,100
2022-08-03T13:30:06.274Z,100
2022-08-03T13:31:07.108Z,100
2022-08-03T13:32:07.865Z,100
2022-08-03T13:33:08.482Z,100
2022-08-03T13:34:09.160Z,100
2022-08-03T13:35:09.776Z,100
2022-08-03T13:36:10.408Z,100
2022-08-03T13:37:11.057Z,100
2022-08-03T13:38:11.858Z,100
2022-08-03T13:39:13.938Z,100
2022-08-03T13:40:14.898Z,100
2022-08-03T13:41:16.141Z,100
2022-08-03T13:42:17.052Z,100
2022-08-03T13:43:17.662Z,100
2022-08-03T13:44:29.326Z,100
2022-08-03T13:45:30.607Z,100
2022-08-03T13:46:31.215Z,100
2022-08-03T13:47:31.845Z,100
2022-08-03T13:48:36.856Z,100
2022-08-03T13:49:38.466Z,100
2022-08-03T13:50:42.926Z,100
2022-08-03T13:51:43.942Z,100
2022-08-03T13:52:44.568Z,100
2022-08-03T13:53:45.186Z,100
2022-08-03T13:54:46.236Z,100
2022-08-03T13:55:47.965Z,100
2022-08-03T13:56:48.599Z,100
2022-08-03T13:58:06.154Z,100
2022-08-03T13:59:08.066Z,100
2022-08-03T14:00:08.721Z,100
2022-08-03T14:01:09.451Z,100
2022-08-03T14:02:10.131Z,100
2022-08-03T14:03:13.902Z,100
2022-08-03T14:04:22.307Z,100
2022-08-03T14:05:23.359Z,100
2022-08-03T14:06:23.979Z,100
2022-08-03T14:07:24.610Z,100
2022-08-03T14:08:25.214Z,100
2022-08-03T14:09:25.820Z,100
2022-08-03T14:10:26.446Z,98.84257
2022-08-03T14:11:27.066Z,97.68042
2022-08-03T14:13:08.525Z,95.69432
2022-08-03T14:14:09.178Z,96.42144
2022-08-03T14:15:09.849Z,95.50475
2022-08-03T14:16:10.522Z,94.13075
2022-08-03T14:17:17.884Z,97.07789
2022-08-03T14:18:27.832Z,96.56801
2022-08-03T14:19:34.032Z,97.04244
2022-08-03T14:20:56.359Z,99.29711
2022-08-03T14:22:01.820Z,97.57864
2022-08-03T14:23:07.403Z,97.29327
2022-08-03T14:24:08.043Z,96.04553
2022-08-03T14:25:09.770Z,96.51991
2022-08-03T14:26:10.616Z,94.75491
2022-08-03T14:27:11.313Z,97.13981
2022-08-03T14:28:11.931Z,99.48234
2022-08-03T14:29:13.272Z,100
2022-08-03T14:30:13.924Z,99.88145
2022-08-03T14:32:11.859Z,100